createdAt,value
2023-02-09T00:02:36.470Z,-5.30
2023-02-09T00:05:34.385Z,-5.30
2023-02-09T00:08:31.831Z,-5.30
2023-02-09T00:11:43.648Z,-5.32
2023-02-09T00:14:41.476Z,-5.50
2023-02-09T00:17:38.921Z,-5.50
2023-02-09T00:20:36.824Z,-5.60
2023-02-09T00:23:34.258Z,-5.70
2023-02-09T00:26:32.064Z,-5.82
2023-02-09T00:29:29.522Z,-5.88
2023-02-09T00:32:27.394Z,-5.90
2023-02-09T00:35:25.271Z,-5.90
2023-02-09T00:38:23.070Z,-5.90
2023-02-09T00:41:41.261Z,-6.00
2023-02-09T00:44:38.736Z,-6.00
2023-02-09T00:47:36.590Z,-6.00
2023-02-09T00:50:34.032Z,-6.00
2023-02-09T00:53:31.829Z,-6.00
2023-02-09T00:56:29.829Z,-5.96
2023-02-09T00:59:27.275Z,-5.92
2023-02-09T01:02:25.527Z,-5.90
2023-02-09T01:05:22.961Z,-5.80
2023-02-09T01:08:20.765Z,-5.76
2023-02-09T01:11:18.194Z,-5.70
2023-02-09T01:14:15.959Z,-5.70
2023-02-09T01:17:13.754Z,-5.60
2023-02-09T01:20:11.185Z,-5.60
2023-02-09T01:23:08.959Z,-5.60
2023-02-09T01:26:06.409Z,-5.58
2023-02-09T01:29:04.131Z,-5.52
2023-02-09T01:32:01.687Z,-5.50
2023-02-09T01:34:59.549Z,-5.46
2023-02-09T01:37:57.302Z,-5.40
2023-02-09T01:40:54.752Z,-5.40
2023-02-09T01:43:52.525Z,-5.40
2023-02-09T01:46:49.962Z,-5.40
2023-02-09T01:49:47.753Z,-5.40
2023-02-09T01:52:45.205Z,-5.40
2023-02-09T01:55:42.824Z,-5.50
2023-02-09T01:58:40.254Z,-5.54
2023-02-09T02:01:38.084Z,-5.60
2023-02-09T02:04:35.545Z,-5.54
2023-02-09T02:07:33.219Z,-5.50
2023-02-09T02:10:30.902Z,-5.46
2023-02-09T02:13:28.316Z,-5.42
2023-02-09T02:16:26.007Z,-5.48
2023-02-09T02:19:23.436Z,-5.50
2023-02-09T02:22:21.160Z,-5.50
2023-02-09T02:25:19.023Z,-5.50
2023-02-09T02:28:16.534Z,-5.40
2023-02-09T02:31:14.415Z,-5.40
2023-02-09T02:34:11.882Z,-5.40
2023-02-09T02:37:09.571Z,-5.40
2023-02-09T02:40:06.997Z,-5.30
2023-02-09T02:43:04.786Z,-5.30
2023-02-09T02:46:02.596Z,-5.30
2023-02-09T02:49:00.103Z,-5.30
2023-02-09T02:51:57.878Z,-5.20
2023-02-09T02:54:55.314Z,-5.20
2023-02-09T02:57:53.019Z,-5.20
2023-02-09T03:00:50.440Z,-5.20
2023-02-09T03:03:48.071Z,-5.20
2023-02-09T03:06:45.510Z,-5.20
2023-02-09T03:09:43.213Z,-5.20
2023-02-09T03:12:40.933Z,-5.20
2023-02-09T03:15:38.378Z,-5.24
2023-02-09T03:18:36.173Z,-5.28
2023-02-09T03:21:33.638Z,-5.30
2023-02-09T03:24:31.383Z,-5.30
2023-02-09T03:27:28.839Z,-5.30
2023-02-09T03:30:26.762Z,-5.32
2023-02-09T03:33:24.487Z,-5.40
2023-02-09T03:36:21.909Z,-5.46
2023-02-09T03:39:19.707Z,-5.50
2023-02-09T03:42:17.156Z,-5.60
2023-02-09T03:45:14.945Z,-5.60
2023-02-09T03:48:12.396Z,-5.60
2023-02-09T03:51:12.846Z,-5.64
2023-02-09T03:54:10.606Z,-5.64
2023-02-09T03:57:08.080Z,-5.60
2023-02-09T04:00:07.956Z,-5.60
2023-02-09T04:03:06.382Z,-5.70
2023-02-09T04:06:04.110Z,-5.74
2023-02-09T04:09:01.551Z,-5.80
2023-02-09T04:11:59.245Z,-5.80
2023-02-09T04:14:56.669Z,-5.80
2023-02-09T04:17:54.364Z,-5.80
2023-02-09T04:20:51.794Z,-5.90
2023-02-09T04:23:49.484Z,-5.88
2023-02-09T04:26:47.262Z,-5.90
2023-02-09T04:29:44.714Z,-5.90
2023-02-09T04:32:42.433Z,-6.00
2023-02-09T04:35:39.902Z,-6.00
2023-02-09T04:38:37.768Z,-6.00
2023-02-09T04:41:35.319Z,-6.08
2023-02-09T04:44:33.047Z,-6.10
2023-02-09T04:47:30.529Z,-6.10
2023-02-09T04:50:28.263Z,-6.10
2023-02-09T04:53:25.871Z,-6.18
2023-02-09T04:56:23.313Z,-6.16
2023-02-09T04:59:36.303Z,-6.20
2023-02-09T05:02:33.745Z,-6.18
2023-02-09T05:05:31.427Z,-6.12
2023-02-09T05:08:28.860Z,-6.10
2023-02-09T05:11:26.535Z,-6.10
2023-02-09T05:14:24.260Z,-6.00
2023-02-09T05:17:21.683Z,-6.00
2023-02-09T05:20:19.445Z,-5.98
2023-02-09T05:23:16.917Z,-5.90
2023-02-09T05:26:14.640Z,-5.80
2023-02-09T05:29:12.109Z,-5.74
2023-02-09T05:32:09.779Z,-5.78
2023-02-09T05:35:08.516Z,-5.70
2023-02-09T05:38:06.372Z,-5.66
2023-02-09T05:41:04.011Z,-5.60
2023-02-09T05:44:01.456Z,-5.70
2023-02-09T05:46:59.249Z,-5.80
2023-02-09T05:49:56.694Z,-5.80
2023-02-09T05:52:54.479Z,-5.80
2023-02-09T05:55:51.919Z,-5.80
2023-02-09T05:58:49.635Z,-5.88
2023-02-09T06:01:47.054Z,-5.90
2023-02-09T06:04:44.702Z,-5.90
2023-02-09T06:07:42.501Z,-5.90
2023-02-09T06:10:39.955Z,-5.90
2023-02-09T06:13:37.625Z,-5.96
2023-02-09T06:16:35.094Z,-6.00
2023-02-09T06:19:32.854Z,-6.00
2023-02-09T06:22:31.860Z,-6.08
2023-02-09T06:25:29.617Z,-6.08
2023-02-09T06:28:27.419Z,-6.00
2023-02-09T06:31:25.060Z,-6.02
2023-02-09T06:34:22.912Z,-6.00
2023-02-09T06:37:20.354Z,-6.00
2023-02-09T06:40:19.992Z,-6.10
2023-02-09T06:43:17.420Z,-6.10
2023-02-09T06:46:16.059Z,-6.08
2023-02-09T06:49:13.506Z,-6.00
2023-02-09T06:52:11.473Z,-5.90
2023-02-09T06:55:08.916Z,-5.86
2023-02-09T06:58:06.688Z,-5.70
2023-02-09T07:01:04.458Z,-5.68
2023-02-09T07:04:01.902Z,-5.60
2023-02-09T07:06:59.572Z,-5.50
2023-02-09T07:09:57.016Z,-5.30
2023-02-09T07:12:55.513Z,-5.16
2023-02-09T07:15:52.967Z,-5.00
2023-02-09T07:18:50.720Z,-4.90
2023-02-09T07:21:48.195Z,-4.80
2023-02-09T07:24:45.879Z,-4.68
2023-02-09T07:27:43.726Z,-4.58
2023-02-09T07:30:42.270Z,-4.50
2023-02-09T07:33:39.988Z,-4.44
2023-02-09T07:36:37.466Z,-4.30
2023-02-09T07:39:35.217Z,-4.20
2023-02-09T07:42:33.010Z,-4.10
2023-02-09T07:45:30.763Z,-4.00
2023-02-09T07:48:28.182Z,-3.90
2023-02-09T07:51:27.639Z,-3.84
2023-02-09T07:54:25.382Z,-3.80
2023-02-09T07:57:22.815Z,-3.72
2023-02-09T08:00:21.737Z,-3.70
2023-02-09T08:03:19.183Z,-3.60
2023-02-09T08:06:19.805Z,-3.50
2023-02-09T08:09:17.736Z,-3.48
2023-02-09T08:12:15.492Z,-3.40
2023-02-09T08:15:13.244Z,-3.30
2023-02-09T08:18:12.784Z,-3.30
2023-02-09T08:21:11.434Z,-3.30
2023-02-09T08:24:08.879Z,-3.26
2023-02-09T08:27:06.497Z,-3.20
2023-02-09T08:30:03.992Z,-3.14
2023-02-09T08:33:02.288Z,-3.10
2023-02-09T08:36:00.153Z,-2.92
2023-02-09T08:38:57.593Z,-2.90
2023-02-09T08:41:55.304Z,-2.80
2023-02-09T08:44:52.737Z,-2.78
2023-02-09T08:47:50.439Z,-2.70
2023-02-09T08:50:48.186Z,-2.50
2023-02-09T08:53:52.234Z,-2.40
2023-02-09T08:56:50.315Z,-2.30
2023-02-09T08:59:48.592Z,-2.20
2023-02-09T09:02:46.216Z,-2.10
2023-02-09T09:05:43.692Z,-2.00
2023-02-09T09:08:41.938Z,-1.90
2023-02-09T09:11:39.411Z,-1.70
2023-02-09T09:14:38.093Z,-1.50
2023-02-09T09:17:35.636Z,-1.30
2023-02-09T09:20:33.434Z,-1.20
2023-02-09T09:23:31.125Z,-1.10
2023-02-09T09:26:28.556Z,-1.00
2023-02-09T09:29:26.138Z,-0.82
2023-02-09T09:32:25.147Z,-0.70
2023-02-09T09:35:22.989Z,-0.60
2023-02-09T09:38:20.413Z,-0.40
2023-02-09T09:41:18.403Z,-0.24
2023-02-09T09:44:15.825Z,-0.10
2023-02-09T09:47:13.640Z,0.00
2023-02-09T09:50:11.497Z,0.20
2023-02-09T09:53:09.000Z,0.40
2023-02-09T09:56:06.727Z,0.50
2023-02-09T09:59:04.169Z,0.60
2023-02-09T10:02:01.842Z,0.78
2023-02-09T10:04:59.310Z,0.90
2023-02-09T10:07:57.085Z,1.04
2023-02-09T10:10:55.449Z,1.22
2023-02-09T10:13:52.876Z,1.60
2023-02-09T10:16:50.783Z,1.90
2023-02-09T10:19:48.439Z,2.18
2023-02-09T10:22:46.728Z,2.36
2023-02-09T10:25:44.292Z,2.60
2023-02-09T10:28:42.104Z,2.80
2023-02-09T10:31:39.954Z,3.00
2023-02-09T10:34:37.703Z,3.10
2023-02-09T10:37:35.468Z,3.26
2023-02-09T10:40:32.889Z,3.40
2023-02-09T10:43:30.691Z,3.54
2023-02-09T10:46:29.027Z,3.70
2023-02-09T10:49:26.519Z,3.80
2023-02-09T10:52:24.263Z,3.80
2023-02-09T10:55:21.880Z,3.80
2023-02-09T10:58:19.618Z,3.90
2023-02-09T11:01:17.099Z,4.00
2023-02-09T11:04:16.512Z,4.02
2023-02-09T11:07:14.529Z,4.20
2023-02-09T11:10:12.793Z,4.38
2023-02-09T11:13:10.621Z,4.46
2023-02-09T11:16:08.080Z,4.60
2023-02-09T11:19:07.377Z,4.60
2023-02-09T11:22:07.414Z,4.60
2023-02-09T11:25:04.828Z,4.50
2023-02-09T11:28:03.176Z,4.40
2023-02-09T11:31:00.751Z,4.40
2023-02-09T11:33:59.683Z,4.30
2023-02-09T11:36:57.101Z,4.22
2023-02-09T11:39:54.719Z,4.20
2023-02-09T11:42:53.919Z,4.20
2023-02-09T11:45:51.379Z,4.20
2023-02-09T11:48:49.186Z,4.10
2023-02-09T11:51:46.642Z,4.00
2023-02-09T11:54:47.442Z,4.00
2023-02-09T11:57:44.900Z,4.12
2023-02-09T12:00:54.488Z,4.20
2023-02-09T12:03:55.686Z,4.22
2023-02-09T12:06:53.221Z,4.30
2023-02-09T12:09:51.028Z,4.30
2023-02-09T12:12:48.496Z,4.20
2023-02-09T12:15:46.613Z,4.20
2023-02-09T12:18:44.053Z,4.30
2023-02-09T12:21:42.176Z,4.30
2023-02-09T12:24:39.854Z,4.42
2023-02-09T12:27:39.044Z,4.50
2023-02-09T12:30:36.758Z,4.54
2023-02-09T12:33:34.314Z,4.60
2023-02-09T12:36:33.438Z,4.60
2023-02-09T12:39:32.099Z,4.60
2023-02-09T12:42:29.830Z,4.50
2023-02-09T12:45:27.281Z,4.44
2023-02-09T12:48:24.911Z,4.40
2023-02-09T12:51:22.332Z,4.40
2023-02-09T12:54:20.088Z,4.40
2023-02-09T12:57:19.074Z,4.30
2023-02-09T13:00:16.525Z,4.30
2023-02-09T13:03:14.472Z,4.30
2023-02-09T13:06:11.893Z,4.30
2023-02-09T13:09:11.486Z,4.40
2023-02-09T13:12:08.920Z,4.40
2023-02-09T13:15:06.622Z,4.50
2023-02-09T13:18:04.466Z,4.60
2023-02-09T13:21:01.902Z,4.60
2023-02-09T13:23:59.595Z,4.60
2023-02-09T13:26:57.023Z,4.52
2023-02-09T13:29:54.857Z,4.44
2023-02-09T13:32:52.290Z,4.40
2023-02-09T13:35:50.062Z,4.40
2023-02-09T13:38:47.814Z,4.40
2023-02-09T13:41:45.671Z,4.40
2023-02-09T13:44:43.477Z,4.32
2023-02-09T13:47:40.909Z,4.30
2023-02-09T13:50:38.590Z,4.30
2023-02-09T13:53:36.353Z,4.30
2023-02-09T13:56:33.830Z,4.22
2023-02-09T13:59:32.198Z,4.20
2023-02-09T14:02:29.641Z,4.20
2023-02-09T14:05:27.566Z,4.20
2023-02-09T14:08:25.000Z,4.20
2023-02-09T14:11:26.082Z,4.22
2023-02-09T14:14:54.457Z,4.22
2023-02-09T14:17:53.462Z,4.20
2023-02-09T14:20:52.602Z,4.10
2023-02-09T14:23:50.072Z,4.00
2023-02-09T14:26:47.787Z,4.00
2023-02-09T14:29:45.275Z,3.90
2023-02-09T14:32:45.577Z,3.90
2023-02-09T14:35:43.425Z,3.84
2023-02-09T14:38:42.754Z,3.80
2023-02-09T14:41:40.550Z,3.74
2023-02-09T14:44:37.996Z,3.70
2023-02-09T14:47:35.873Z,3.60
2023-02-09T14:50:33.540Z,3.60
2023-02-09T14:53:30.968Z,3.50
2023-02-09T14:56:28.683Z,3.40
2023-02-09T14:59:26.121Z,3.30
2023-02-09T15:02:24.960Z,3.20
2023-02-09T15:05:22.490Z,3.10
2023-02-09T15:08:20.232Z,3.00
2023-02-09T15:11:37.165Z,2.90
2023-02-09T15:14:37.238Z,2.82
2023-02-09T15:17:34.966Z,2.78
2023-02-09T15:20:33.780Z,2.68
2023-02-09T15:23:31.722Z,2.60
2023-02-09T15:26:29.163Z,2.50
2023-02-09T15:29:27.657Z,2.40
2023-02-09T15:32:25.550Z,2.38
2023-02-09T15:35:23.411Z,2.30
2023-02-09T15:38:21.481Z,2.20
2023-02-09T15:41:36.736Z,2.10
2023-02-09T15:44:52.481Z,2.00
2023-02-09T15:47:50.103Z,1.90
2023-02-09T15:50:48.227Z,1.90
2023-02-09T15:53:45.982Z,1.80
2023-02-09T15:56:44.427Z,1.70
2023-02-09T15:59:42.891Z,1.60
2023-02-09T16:02:40.523Z,1.60
2023-02-09T16:05:38.654Z,1.50
2023-02-09T16:08:37.868Z,1.42
2023-02-09T16:11:36.532Z,1.40
2023-02-09T16:14:35.679Z,1.30
2023-02-09T16:17:33.215Z,1.26
2023-02-09T16:20:32.510Z,1.20
2023-02-09T16:23:31.840Z,1.10
2023-02-09T16:26:29.936Z,1.10
2023-02-09T16:29:27.953Z,1.00
2023-02-09T16:32:25.648Z,0.90
2023-02-09T16:35:23.992Z,0.84
2023-02-09T16:38:22.605Z,0.80
2023-02-09T16:41:38.712Z,0.70
2023-02-09T16:44:38.014Z,0.60
2023-02-09T16:47:36.908Z,0.52
2023-02-09T16:50:34.539Z,0.50
2023-02-09T16:53:33.959Z,0.50
2023-02-09T16:56:35.926Z,0.40
2023-02-09T16:59:35.780Z,0.30
2023-02-09T17:02:34.038Z,0.30
2023-02-09T17:05:31.653Z,0.20
2023-02-09T17:08:32.478Z,0.20
2023-02-09T17:11:30.535Z,0.10
2023-02-09T17:14:30.699Z,0.00
2023-02-09T17:17:28.708Z,0.00
2023-02-09T17:20:28.199Z,-0.10
2023-02-09T17:23:26.994Z,-0.10
2023-02-09T17:26:26.121Z,-0.10
2023-02-09T17:29:24.038Z,-0.20
2023-02-09T17:32:22.103Z,-0.20
2023-02-09T17:35:38.254Z,-0.22
2023-02-09T17:38:41.326Z,-0.30
2023-02-09T17:41:41.168Z,-0.30
2023-02-09T17:44:46.562Z,-0.30
2023-02-09T17:47:46.956Z,-0.30
2023-02-09T17:50:46.410Z,-0.30
2023-02-09T17:53:45.412Z,-0.40
2023-02-09T17:56:43.389Z,-0.40
2023-02-09T17:59:42.289Z,-0.50
2023-02-09T18:02:40.386Z,-0.60
2023-02-09T18:05:41.112Z,-0.62
2023-02-09T18:08:39.015Z,-0.70
2023-02-09T18:11:37.851Z,-0.70
2023-02-09T18:14:36.932Z,-0.80
2023-02-09T18:17:35.718Z,-0.80
2023-02-09T18:20:37.824Z,-0.90
2023-02-09T18:23:36.701Z,-1.00
2023-02-09T18:26:37.139Z,-1.00
2023-02-09T18:29:35.500Z,-1.10
2023-02-09T18:32:33.586Z,-1.20
2023-02-09T18:35:34.029Z,-1.22
2023-02-09T18:38:32.709Z,-1.30
2023-02-09T18:41:31.701Z,-1.30
2023-02-09T18:44:32.956Z,-1.40
2023-02-09T18:47:33.797Z,-1.40
2023-02-09T18:50:31.667Z,-1.50
2023-02-09T18:53:30.454Z,-1.50
2023-02-09T18:56:29.846Z,-1.60
2023-02-09T18:59:30.217Z,-1.60
2023-02-09T19:02:28.793Z,-1.66
2023-02-09T19:05:28.534Z,-1.70
2023-02-09T19:08:27.471Z,-1.70
2023-02-09T19:11:29.397Z,-1.70
2023-02-09T19:14:39.995Z,-1.74
2023-02-09T19:17:38.694Z,-1.78
2023-02-09T19:20:37.490Z,-1.70
2023-02-09T19:23:36.999Z,-1.66
2023-02-09T19:26:36.414Z,-1.60
2023-02-09T19:29:35.295Z,-1.60
2023-02-09T19:32:36.348Z,-1.52
2023-02-09T19:35:36.723Z,-1.50
2023-02-09T19:38:37.417Z,-1.48
2023-02-09T19:41:37.863Z,-1.40
2023-02-09T19:44:36.741Z,-1.38
2023-02-09T19:47:36.333Z,-1.30
2023-02-09T19:50:37.239Z,-1.30
2023-02-09T19:53:40.552Z,-1.28
2023-02-09T19:56:40.267Z,-1.22
2023-02-09T19:59:39.279Z,-1.20
2023-02-09T20:02:37.727Z,-1.22
2023-02-09T20:05:35.936Z,-1.20
2023-02-09T20:08:34.731Z,-1.20
2023-02-09T20:11:33.447Z,-1.20
2023-02-09T20:14:33.972Z,-1.24
2023-02-09T20:17:33.384Z,-1.26
2023-02-09T20:20:31.551Z,-1.24
2023-02-09T20:23:30.635Z,-1.28
2023-02-09T20:26:29.860Z,-1.30
2023-02-09T20:29:28.611Z,-1.30
2023-02-09T20:32:27.413Z,-1.30
2023-02-09T20:35:26.411Z,-1.30
2023-02-09T20:38:25.445Z,-1.30
2023-02-09T20:41:23.496Z,-1.30
2023-02-09T20:44:39.681Z,-1.30
2023-02-09T20:47:38.365Z,-1.40
2023-02-09T20:50:41.969Z,-1.40
2023-02-09T20:53:43.662Z,-1.40
2023-02-09T20:56:42.540Z,-1.40
2023-02-09T20:59:43.726Z,-1.40
2023-02-09T21:02:42.437Z,-1.42
2023-02-09T21:05:40.176Z,-1.46
2023-02-09T21:08:38.039Z,-1.50
2023-02-09T21:11:36.584Z,-1.50
2023-02-09T21:14:42.139Z,-1.50
2023-02-09T21:17:48.299Z,-1.60
2023-02-09T21:20:46.435Z,-1.60
2023-02-09T21:23:44.338Z,-1.62
2023-02-09T21:26:43.534Z,-1.70
2023-02-09T21:29:41.551Z,-1.70
2023-02-09T21:32:39.405Z,-1.80
2023-02-09T21:35:36.869Z,-1.90
2023-02-09T21:38:37.645Z,-1.94
2023-02-09T21:41:54.616Z,-2.00
2023-02-09T21:44:56.770Z,-2.10
2023-02-09T21:47:54.974Z,-2.14
2023-02-09T21:50:52.465Z,-2.20
2023-02-09T21:53:50.072Z,-2.30
2023-02-09T21:56:47.797Z,-2.36
2023-02-09T21:59:45.582Z,-2.40
2023-02-09T22:02:43.364Z,-2.50
2023-02-09T22:05:40.801Z,-2.50
2023-02-09T22:08:38.571Z,-2.60
2023-02-09T22:11:36.025Z,-2.68
2023-02-09T22:14:33.715Z,-2.70
2023-02-09T22:17:31.130Z,-2.72
2023-02-09T22:20:28.821Z,-2.80
2023-02-09T22:23:27.613Z,-2.80
2023-02-09T22:26:25.016Z,-2.90
2023-02-09T22:29:22.673Z,-2.90
2023-02-09T22:32:20.513Z,-3.00
2023-02-09T22:35:18.279Z,-3.00
2023-02-09T22:38:15.718Z,-3.10
2023-02-09T22:41:21.925Z,-3.10
2023-02-09T22:44:19.909Z,-3.20
2023-02-09T22:47:17.373Z,-3.22
2023-02-09T22:50:15.096Z,-3.30
2023-02-09T22:53:12.522Z,-3.40
2023-02-09T22:56:10.327Z,-3.40
2023-02-09T22:59:07.748Z,-3.46
2023-02-09T23:02:05.351Z,-3.50
2023-02-09T23:05:03.017Z,-3.50
2023-02-09T23:08:00.450Z,-3.50
2023-02-09T23:10:58.128Z,-3.50
2023-02-09T23:14:11.625Z,-3.50
2023-02-09T23:17:09.448Z,-3.50
2023-02-09T23:20:07.119Z,-3.50
2023-02-09T23:23:06.700Z,-3.50
2023-02-09T23:26:04.382Z,-3.50
2023-02-09T23:29:01.811Z,-3.50
2023-02-09T23:31:59.715Z,-3.50
2023-02-09T23:34:57.165Z,-3.50
2023-02-09T23:37:54.854Z,-3.60
2023-02-09T23:40:52.269Z,-3.60
2023-02-09T23:43:49.941Z,-3.62
2023-02-09T23:46:47.736Z,-3.70
2023-02-09T23:49:45.164Z,-3.76
2023-02-09T23:52:44.389Z,-3.80
2023-02-09T23:55:42.070Z,-3.88
2023-02-09T23:58:39.826Z,-3.90
